Terminal Aerodrome Forecast
Issued by NWS Chicago, IL

Home | Current Version | Previous Version | Graphics & Text | Print | Product List | Glossary On
Versions: 1 2 3 4 5 6 7 8 9 10 11 12 13 14 15 16 17 18 19 20 21 22 23 24 25 26 27 28 29 30 31 32 33 34 35 36 37 38 39 40 41
000
FTUS43 KLOT 232200 AAB
TAFRFD
TAF AMD
KRFD 232202Z 2322/2418 14012KT 2SM RA BR OVC006
     FM240300 17008KT 1 1/2SM -RA BR OVC005
     FM240600 19008KT 2SM -RA BR OVC004
     FM241200 24015G22KT 3SM -RA BR SCT007 OVC015
     FM241500 25020G30KT 3SM -RASN SCT007 OVC012
     FM241700 27021G32KT 2SM -SN BKN007 OVC012=

USA.gov is the U.S. government's official web portal to all federal, state and local government web resources and services.